Time;durP1;ratioP1;P1;durP2;ratioP2;P2;SDS_P1;SDS_P2;PMS_P1;PMS_P2;Temp;Humidity;BMP_temperature;BMP_pressure;BME280_temperature;BME280_humidity;BME280_pressure;Samples;Min_cycle;Max_cycle;Signal;HPM_P1;HPM_P2
2023/04/28 00:00:28;;;;;;;11.35;6.57;;;;;;;;;;4974423;28;25084;-76
2023/04/28 00:02:54;;;;;;;12.68;6.93;;;;;;;;;;4978248;28;25083;-76
2023/04/28 00:05:23;;;;;;;12.10;6.60;;;;;;;;;;4987063;28;25071;-78
2023/04/28 00:07:50;;;;;;;10.50;6.00;;;;;;;;;;4979181;28;25057;-77
2023/04/28 00:10:16;;;;;;;12.82;6.43;;;;;;;;;;4999263;28;25062;-76
2023/04/28 00:12:42;;;;;;;12.02;6.65;;;;;;;;;;5001605;28;25128;-79
2023/04/28 00:15:08;;;;;;;16.65;6.55;;;;;;;;;;4978979;28;25074;-79
2023/04/28 00:17:34;;;;;;;12.85;6.85;;;;;;;;;;4985663;28;25076;-78
2023/04/28 00:20:00;;;;;;;15.48;7.35;;;;;;;;;;4973135;28;25080;-76
2023/04/28 00:22:26;;;;;;;11.98;6.93;;;;;;;;;;4977175;28;25104;-79
2023/04/28 00:24:51;;;;;;;11.52;6.85;;;;;;;;;;4975692;28;25073;-76
2023/04/28 00:27:17;;;;;;;11.45;6.68;;;;;;;;;;4966980;28;25053;-79
2023/04/28 00:29:43;;;;;;;13.15;7.05;;;;;;;;;;4972262;28;25071;-76
2023/04/28 00:32:09;;;;;;;11.18;6.57;;;;;;;;;;4974691;28;25119;-75
2023/04/28 00:34:36;;;;;;;12.00;6.72;;;;;;;;;;4977856;28;25058;-78
2023/04/28 00:37:03;;;;;;;10.05;6.68;;;;;;;;;;4972786;28;25049;-78
2023/04/28 00:39:29;;;;;;;10.65;6.63;;;;;;;;;;4985894;28;25062;-76
2023/04/28 00:41:55;;;;;;;15.23;7.00;;;;;;;;;;4970154;28;25076;-77
2023/04/28 00:44:21;;;;;;;10.45;6.70;;;;;;;;;;4977484;28;25072;-78
2023/04/28 00:46:47;;;;;;;11.98;7.30;;;;;;;;;;4974779;28;25058;-78
2023/04/28 00:49:15;;;;;;;11.05;6.07;;;;;;;;;;4972900;28;25071;-77
2023/04/28 00:51:41;;;;;;;14.18;6.57;;;;;;;;;;4979988;28;25092;-78
2023/04/28 00:54:07;;;;;;;17.38;6.95;;;;;;;;;;4979020;28;25104;-77
2023/04/28 00:56:33;;;;;;;13.10;6.70;;;;;;;;;;4983640;28;25076;-77
2023/04/28 00:58:59;;;;;;;12.73;6.90;;;;;;;;;;4980181;28;25076;-76
2023/04/28 01:01:25;;;;;;;10.98;6.60;;;;;;;;;;4972049;28;25073;-76
2023/04/28 01:03:51;;;;;;;11.00;7.03;;;;;;;;;;4977046;28;25078;-79
2023/04/28 01:06:17;;;;;;;12.93;6.38;;;;;;;;;;4972950;28;25152;-78
2023/04/28 01:08:47;;;;;;;13.25;6.95;;;;;;;;;;4970547;28;25067;-76
2023/04/28 01:11:13;;;;;;;14.32;6.88;;;;;;;;;;4970854;28;25185;-78
2023/04/28 01:13:40;;;;;;;14.85;7.15;;;;;;;;;;4973690;28;25051;-78
2023/04/28 01:16:08;;;;;;;11.50;6.90;;;;;;;;;;4980116;28;25081;-78
2023/04/28 01:18:34;;;;;;;14.20;6.85;;;;;;;;;;4972142;28;25072;-78
2023/04/28 01:21:02;;;;;;;12.30;6.43;;;;;;;;;;4985422;28;25154;-76
2023/04/28 01:23:28;;;;;;;11.77;6.38;;;;;;;;;;4986140;28;25103;-77
2023/04/28 01:25:55;;;;;;;11.98;6.97;;;;;;;;;;4972297;28;25042;-78
2023/04/28 01:28:21;;;;;;;11.80;6.85;;;;;;;;;;4984931;28;25169;-78
2023/04/28 01:30:47;;;;;;;15.77;6.22;;;;;;;;;;4975524;28;25083;-78
2023/04/28 01:33:13;;;;;;;12.65;6.10;;;;;;;;;;4970889;28;25129;-76
2023/04/28 01:35:40;;;;;;;12.15;6.32;;;;;;;;;;4978528;28;25084;-78
2023/04/28 01:38:06;;;;;;;13.63;7.32;;;;;;;;;;4980129;28;25103;-77
2023/04/28 01:40:32;;;;;;;12.00;6.40;;;;;;;;;;4978573;28;25087;-77
2023/04/28 01:42:58;;;;;;;11.75;7.38;;;;;;;;;;4974430;28;25156;-75
2023/04/28 01:45:24;;;;;;;13.18;6.53;;;;;;;;;;4985502;28;25062;-78
2023/04/28 01:47:50;;;;;;;12.13;7.05;;;;;;;;;;4970517;28;25069;-77
2023/04/28 01:50:16;;;;;;;11.77;6.53;;;;;;;;;;4973641;28;25070;-79
2023/04/28 01:52:42;;;;;;;21.35;7.70;;;;;;;;;;4970677;28;25111;-78
2023/04/28 01:55:08;;;;;;;15.18;7.15;;;;;;;;;;4980054;28;25074;-78
2023/04/28 01:57:34;;;;;;;15.00;7.75;;;;;;;;;;4971184;28;25072;-75
2023/04/28 02:00:02;;;;;;;10.82;5.97;;;;;;;;;;4972871;28;25054;-76
2023/04/28 02:02:29;;;;;;;12.48;6.82;;;;;;;;;;4983601;28;25103;-77
2023/04/28 02:04:56;;;;;;;15.18;7.93;;;;;;;;;;4978509;28;25068;-74
2023/04/28 02:07:23;;;;;;;11.10;6.80;;;;;;;;;;4980274;28;25080;-75
2023/04/28 02:09:49;;;;;;;13.65;5.85;;;;;;;;;;4983924;28;25066;-75
2023/04/28 02:12:16;;;;;;;10.57;6.40;;;;;;;;;;4979131;28;25114;-76
2023/04/28 02:14:42;;;;;;;14.93;7.35;;;;;;;;;;4997672;28;25109;-76
2023/04/28 02:17:08;;;;;;;11.70;6.57;;;;;;;;;;4985231;28;25044;-75
2023/04/28 02:19:34;;;;;;;16.17;7.25;;;;;;;;;;4974341;28;25055;-76
2023/04/28 02:22:00;;;;;;;17.00;7.20;;;;;;;;;;4973598;28;25059;-76
2023/04/28 02:24:26;;;;;;;12.73;6.60;;;;;;;;;;4970292;28;25071;-75
2023/04/28 02:26:52;;;;;;;15.43;6.93;;;;;;;;;;4972558;28;25152;-77
2023/04/28 02:29:19;;;;;;;18.80;7.50;;;;;;;;;;4977385;28;25076;-75
2023/04/28 02:31:45;;;;;;;14.10;6.13;;;;;;;;;;4983849;28;25057;-77
2023/04/28 02:34:11;;;;;;;12.50;7.00;;;;;;;;;;4984254;28;25071;-77
2023/04/28 02:36:38;;;;;;;11.70;6.97;;;;;;;;;;4983179;28;25050;-77
2023/04/28 02:39:04;;;;;;;14.45;6.90;;;;;;;;;;4977538;28;25065;-77
2023/04/28 02:41:31;;;;;;;14.25;6.88;;;;;;;;;;4975137;28;25147;-76
2023/04/28 02:43:56;;;;;;;11.18;6.85;;;;;;;;;;4970370;28;25050;-75
2023/04/28 02:46:22;;;;;;;12.90;7.20;;;;;;;;;;4978207;28;25097;-76
2023/04/28 02:48:48;;;;;;;12.90;6.82;;;;;;;;;;4973236;28;25135;-76
2023/04/28 02:51:14;;;;;;;13.05;7.57;;;;;;;;;;4975463;28;25152;-76
2023/04/28 02:53:40;;;;;;;12.07;6.95;;;;;;;;;;4976834;28;25095;-75
2023/04/28 02:56:06;;;;;;;18.73;7.60;;;10.10;1.00;;;;;;4978321;28;25099;-75
2023/04/28 02:58:32;;;;;;;15.32;7.65;;;;;;;;;;4976330;28;25073;-77
2023/04/28 03:00:58;;;;;;;13.93;7.75;;;;;;;;;;4986159;28;25051;-76
2023/04/28 03:03:25;;;;;;;16.92;8.15;;;;;;;;;;4972507;28;25147;-77
2023/04/28 03:05:51;;;;;;;16.45;8.18;;;;;;;;;;4977564;28;25156;-76
2023/04/28 03:08:17;;;;;;;18.10;8.00;;;;;;;;;;4973392;28;25087;-80
2023/04/28 03:10:43;;;;;;;11.07;6.78;;;;;;;;;;4992071;28;25065;-76
2023/04/28 03:13:10;;;;;;;15.73;7.82;;;;;;;;;;4993066;28;25067;-74
2023/04/28 03:15:36;;;;;;;13.75;7.32;;;;;;;;;;4989217;28;25045;-76
2023/04/28 03:18:02;;;;;;;15.48;8.45;;;;;;;;;;4981550;28;25058;-75
2023/04/28 03:20:28;;;;;;;14.88;7.15;;;;;;;;;;4974778;28;25047;-78
2023/04/28 03:22:53;;;;;;;12.88;7.07;;;;;;;;;;4983807;28;25073;-77
2023/04/28 03:25:20;;;;;;;14.52;7.05;;;;;;;;;;4976038;28;25092;-78
2023/04/28 03:27:46;;;;;;;15.43;8.38;;;;;;;;;;4978544;28;25051;-78
2023/04/28 03:30:12;;;;;;;14.95;7.75;;;;;;;;;;4985872;28;25071;-75
2023/04/28 03:32:38;;;;;;;20.75;8.52;;;;;;;;;;4975293;28;25158;-77
2023/04/28 03:35:04;;;;;;;16.35;7.90;;;;;;;;;;4970054;28;25055;-76
2023/04/28 03:37:30;;;;;;;14.13;7.90;;;;;;;;;;4981056;28;25068;-77
2023/04/28 03:39:56;;;;;;;12.43;7.47;;;;;;;;;;4972484;28;25140;-76
2023/04/28 03:42:24;;;;;;;18.65;8.07;;;;;;;;;;4984988;28;25126;-78
2023/04/28 03:44:50;;;;;;;13.07;7.70;;;;;;;;;;4980706;28;25052;-78
2023/04/28 03:47:16;;;;;;;15.55;8.13;;;;;;;;;;4975428;28;25081;-78
2023/04/28 03:49:42;;;;;;;13.50;7.90;;;;;;;;;;4973805;28;25046;-78
2023/04/28 03:52:08;;;;;;;17.15;7.65;;;;;;;;;;4967194;28;25055;-76
2023/04/28 03:54:34;;;;;;;14.48;7.28;;;;;;;;;;4979529;28;25098;-76
2023/04/28 03:57:00;;;;;;;16.67;8.50;;;;;;;;;;4976459;28;25143;-76
2023/04/28 03:59:26;;;;;;;16.90;8.52;;;;;;;;;;4980822;28;25092;-77
2023/04/28 04:01:52;;;;;;;16.40;8.80;;;;;;;;;;4974733;28;25084;-75
2023/04/28 04:04:18;;;;;;;14.95;8.10;;;;;;;;;;4964329;28;25063;-76
2023/04/28 04:06:44;;;;;;;14.07;7.65;;;;;;;;;;4994373;28;25078;-76
2023/04/28 04:09:10;;;;;;;19.30;9.23;;;;;;;;;;4975636;28;25091;-76
2023/04/28 04:11:36;;;;;;;15.85;8.73;;;;;;;;;;4977413;28;25148;-77
2023/04/28 04:14:02;;;;;;;19.90;9.50;;;;;;;;;;4983974;28;25050;-76
2023/04/28 04:16:28;;;;;;;17.48;8.48;;;;;;;;;;4972415;28;25152;-77
2023/04/28 04:18:55;;;;;;;13.32;7.85;;;;;;;;;;4971947;28;25077;-75
2023/04/28 04:21:21;;;;;;;14.05;8.75;;;;;;;;;;4977023;28;25054;-76
2023/04/28 04:23:47;;;;;;;19.45;8.32;;;;;;;;;;4993515;28;25056;-79
2023/04/28 04:26:15;;;;;;;16.80;8.80;;;;;;;;;;4976146;28;25075;-76
2023/04/28 04:28:41;;;;;;;15.75;8.38;;;;;;;;;;4977028;28;25058;-76
2023/04/28 04:31:07;;;;;;;23.27;9.60;;;;;;;;;;4995373;28;25076;-79
2023/04/28 04:33:34;;;;;;;17.27;9.05;;;;;;;;;;4977220;28;25056;-74
2023/04/28 04:36:00;;;;;;;15.13;9.00;;;;;;;;;;4988114;28;25050;-75
2023/04/28 04:38:26;;;;;;;21.27;9.02;;;;;;;;;;4977675;28;25064;-75
2023/04/28 04:40:52;;;;;;;17.58;9.20;;;;;;;;;;4995085;28;25066;-77
2023/04/28 04:43:18;;;;;;;18.65;9.25;;;;;;;;;;4981175;28;25079;-75
2023/04/28 04:45:44;;;;;;;16.05;9.82;;;;;;;;;;4974291;28;25068;-76
2023/04/28 04:48:11;;;;;;;20.67;10.35;;;;;;;;;;4974173;28;25139;-77
2023/04/28 04:50:37;;;;;;;20.20;9.68;;;;;;;;;;4973581;28;25081;-74
2023/04/28 04:53:04;;;;;;;17.13;9.38;;;;;;;;;;4971908;28;25063;-78
2023/04/28 04:55:30;;;;;;;20.83;11.23;;;;;;;;;;4992312;28;25076;-77
2023/04/28 04:57:56;;;;;;;23.35;9.55;;;;;;;;;;4974554;28;25096;-76
2023/04/28 05:00:22;;;;;;;22.52;10.60;;;;;;;;;;4973550;28;25153;-75
2023/04/28 05:02:48;;;;;;;18.95;10.07;;;;;;;;;;4980870;28;25113;-75
2023/04/28 05:05:14;;;;;;;22.85;10.75;;;;;;;;;;4982360;28;25093;-77
2023/04/28 05:07:40;;;;;;;20.58;10.65;;;;;;;;;;4990411;28;25052;-75
2023/04/28 05:10:06;;;;;;;19.20;10.65;;;;;;;;;;4980751;28;25130;-75
2023/04/28 05:12:32;;;;;;;19.92;10.88;;;;;;;;;;4979486;28;25062;-77
2023/04/28 05:14:58;;;;;;;19.58;10.73;;;;;;;;;;4976214;28;25155;-77
2023/04/28 05:17:24;;;;;;;21.23;11.40;;;;;;;;;;4977078;28;25068;-76
2023/04/28 05:19:50;;;;;;;27.70;12.80;;;;;;;;;;4987873;28;25079;-78
2023/04/28 05:22:16;;;;;;;19.90;11.52;;;;;;;;;;4991529;28;25098;-76
2023/04/28 05:24:42;;;;;;;26.75;12.63;;;;;;;;;;4979824;28;25070;-76
2023/04/28 05:27:08;;;;;;;22.65;12.55;;;;;;;;;;4973194;28;25048;-76
2023/04/28 05:29:34;;;;;;;27.67;13.35;;;;;;;;;;4973515;28;25137;-77
2023/04/28 05:32:01;;;;;;;25.15;13.43;;;;;;;;;;4974157;28;25100;-76
2023/04/28 05:34:27;;;;;;;26.77;12.85;;;;;;;;;;4974858;28;25059;-76
2023/04/28 05:36:54;;;;;;;29.27;13.98;;;;;;;;;;4972439;28;25127;-77
2023/04/28 05:39:20;;;;;;;26.35;13.07;;;;;;;;;;4969765;28;25121;-77
2023/04/28 05:41:46;;;;;;;27.05;14.10;;;;;;;;;;4979510;28;25081;-78
2023/04/28 05:44:12;;;;;;;29.27;14.30;;;;;;;;;;4976371;28;25070;-76
2023/04/28 05:46:38;;;;;;;25.35;14.98;;;;;;;;;;4974049;28;25070;-77
2023/04/28 05:49:04;;;;;;;25.00;14.43;;;;;;;;;;4973283;28;25164;-76
2023/04/28 05:51:30;;;;;;;28.80;14.73;;;;;;;;;;4989492;28;25054;-77
2023/04/28 05:53:57;;;;;;;24.25;15.02;;;;;;;;;;4978493;28;25056;-77
2023/04/28 05:56:23;;;;;;;27.23;13.98;;;;;;;;;;4990033;28;25081;-76
2023/04/28 05:58:49;;;;;;;27.48;14.25;;;;;;;;;;4997191;28;25106;-78
2023/04/28 06:01:16;;;;;;;26.80;14.02;;;;;;;;;;4980948;28;25101;-77
2023/04/28 06:03:42;;;;;;;27.05;13.52;;;;;;;;;;4995756;28;25100;-78
2023/04/28 06:06:11;;;;;;;25.27;15.23;;;;;;;;;;4987821;28;25157;-77
2023/04/28 06:08:37;;;;;;;33.53;15.38;;;;;;;;;;4973231;28;25072;-78
2023/04/28 06:11:03;;;;;;;28.33;15.40;;;;;;;;;;4978175;28;25082;-76
2023/04/28 06:13:29;;;;;;;33.53;15.57;;;;;;;;;;4974905;28;25091;-77
2023/04/28 06:15:56;;;;;;;30.75;15.10;;;;;;;;;;4979414;28;25073;-78
2023/04/28 06:18:23;;;;;;;29.05;15.52;;;;;;;;;;4982056;28;25072;-79
2023/04/28 06:20:49;;;;;;;29.92;15.98;;;;;;;;;;4979038;28;25055;-78
2023/04/28 06:23:15;;;;;;;31.20;15.82;;;;;;;;;;4978511;28;25094;-77
2023/04/28 06:25:41;;;;;;;33.67;16.77;;;;;;;;;;4975747;28;25093;-76
2023/04/28 06:28:08;;;;;;;37.03;17.63;;;;;;;;;;4978491;28;25075;-77
2023/04/28 06:30:35;;;;;;;36.55;18.58;;;;;;;;;;4991619;28;25079;-78
2023/04/28 06:33:01;;;;;;;33.45;17.65;;;;;;;;;;4983810;28;25062;-76
2023/04/28 06:35:27;;;;;;;33.58;16.52;;;;;;;;;;4991887;28;25079;-78
2023/04/28 06:37:53;;;;;;;31.92;19.00;;;;;;;;;;4984133;28;25060;-75
2023/04/28 06:40:19;;;;;;;33.58;17.88;;;;;;;;;;4996875;28;25062;-77
2023/04/28 06:42:45;;;;;;;34.47;17.75;;;;;;;;;;4975820;28;25068;-79
2023/04/28 06:45:13;;;;;;;35.75;18.48;;;;;;;;;;4980197;28;25094;-76
2023/04/28 06:47:39;;;;;;;34.38;17.63;;;;;;;;;;4981347;28;25054;-77
2023/04/28 06:50:06;;;;;;;41.90;19.65;;;;;;;;;;4984040;28;25164;-75
2023/04/28 06:52:32;;;;;;;33.25;17.63;;;;;;;;;;4983002;28;25079;-77
2023/04/28 06:54:58;;;;;;;37.95;19.23;;;;;;;;;;5001076;28;25072;-76
2023/04/28 06:57:23;;;;;;;37.40;20.33;;;;;;;;;;4979981;28;25096;-77
2023/04/28 06:59:50;;;;;;;34.13;17.35;;;;;;;;;;4997669;28;25054;-78
2023/04/28 07:02:16;;;;;;;34.05;18.27;;;;;;;;;;4999502;28;25105;-77
2023/04/28 07:04:42;;;;;;;36.55;18.13;;;;;;;;;;4999817;28;25065;-78
2023/04/28 07:07:08;;;;;;;38.35;19.58;;;;;;;;;;4993166;28;25082;-78
2023/04/28 07:09:35;;;;;;;30.10;17.13;;;;;;;;;;4996917;28;25072;-77
2023/04/28 07:12:03;;;;;;;38.20;18.05;;;;;;;;;;4989530;28;25073;-78
2023/04/28 07:14:28;;;;;;;43.22;20.38;;;;;;;;;;4983735;28;25054;-79
2023/04/28 07:16:54;;;;;;;37.08;20.90;;;;;;;;;;4996277;28;25132;-77
2023/04/28 07:19:21;;;;;;;34.20;18.63;;;;;;;;;;4996726;28;25116;-77
2023/04/28 07:21:47;;;;;;;40.47;19.55;;;;;;;;;;4984682;28;25068;-78
2023/04/28 07:24:13;;;;;;;38.13;19.20;;;;;;;;;;4988798;28;25069;-77
2023/04/28 07:26:39;;;;;;;40.72;20.15;;;;;;;;;;4985231;28;25064;-78
2023/04/28 07:29:05;;;;;;;40.17;21.52;;;;;;;;;;4990058;28;25084;-79
2023/04/28 07:31:31;;;;;;;41.38;21.25;;;;;;;;;;4985700;28;25060;-77
2023/04/28 07:33:57;;;;;;;40.55;21.42;;;;;;;;;;4983850;28;25095;-76
2023/04/28 07:36:23;;;;;;;34.88;19.80;;;;;;;;;;4979574;28;25068;-77
2023/04/28 07:38:49;;;;;;;42.63;20.48;;;;;;;;;;4983412;28;25073;-77
2023/04/28 07:41:17;;;;;;;43.42;21.55;;;;;;;;;;4982667;28;25091;-78
2023/04/28 07:43:43;;;;;;;41.10;21.70;;;;;;;;;;4979247;28;25146;-79
2023/04/28 07:46:09;;;;;;;39.65;20.42;;;;;;;;;;4996257;28;25075;-77
2023/04/28 07:48:35;;;;;;;39.72;21.02;;;;;;;;;;4997140;28;25070;-78
2023/04/28 07:51:02;;;;;;;41.85;21.33;;;;;;;;;;4992504;28;25084;-76
2023/04/28 07:53:28;;;;;;;35.67;19.73;;;;;;;;;;4978585;28;25072;-77
2023/04/28 07:55:54;;;;;;;32.55;19.70;;;;;;;;;;4983935;28;25058;-77
2023/04/28 07:58:20;;;;;;;31.00;19.50;;;;;;;;;;5007487;28;25077;-76
2023/04/28 08:00:46;;;;;;;33.65;19.08;;;;;;;;;;4976876;28;25047;-77
2023/04/28 08:03:12;;;;;;;37.13;19.95;;;;;;;;;;4987760;28;25082;-78
2023/04/28 08:05:40;;;;;;;36.63;20.02;;;;;;;;;;4988740;28;25106;-78
2023/04/28 08:08:06;;;;;;;35.80;20.63;;;;;;;;;;4978910;28;25056;-78
2023/04/28 08:10:32;;;;;;;30.95;18.48;;;;;;;;;;4991558;28;25089;-78
2023/04/28 08:12:58;;;;;;;42.80;21.30;;;;;;;;;;4999495;28;25066;-77
2023/04/28 08:15:26;;;;;;;42.15;21.63;;;;;;;;;;4982533;28;25071;-75
2023/04/28 08:17:52;;;;;;;38.05;19.85;;;;;;;;;;4978818;28;25078;-77
2023/04/28 08:20:18;;;;;;;38.67;20.63;;;;;;;;;;4983980;28;25142;-78
2023/04/28 08:22:46;;;;;;;36.05;19.77;;;;;;;;;;4984053;28;25093;-78
2023/04/28 08:25:12;;;;;;;36.97;20.38;;;;;;;;;;4979780;28;25061;-76
2023/04/28 08:27:40;;;;;;;34.05;19.67;;;;;;;;;;4980777;28;25127;-78
2023/04/28 08:30:09;;;;;;;38.13;20.20;;;;;;;;;;4981679;28;25061;-81
2023/04/28 08:32:35;;;;;;;35.08;19.55;;;;;;;;;;4989050;28;25064;-77
2023/04/28 08:35:02;;;;;;;32.13;20.27;;;;;;;;;;4977574;28;25065;-76
2023/04/28 08:37:28;;;;;;;34.58;19.70;;;;;;;;;;4983446;28;25151;-78
2023/04/28 08:40:00;;;;;;;34.65;20.08;;;;;;;;;;5008103;28;25076;-77
2023/04/28 08:42:30;;;;;;;31.33;19.65;;;;;;;;;;4970543;28;25072;-77
2023/04/28 08:44:58;;;;;;;34.50;19.55;;;;;;;;;;4980792;28;25072;-78
2023/04/28 08:47:29;;;;;;;31.52;18.85;;;;;;;;;;4969753;28;25060;-78
2023/04/28 08:49:56;;;;;;;30.75;19.33;;;;;;;;;;4974593;28;25069;-77
2023/04/28 08:52:23;;;;;;;27.15;17.40;;;;;;;;;;4986090;28;25055;-79
2023/04/28 08:54:50;;;;;;;34.25;19.23;;;;;;;;;;4984230;28;25065;-77
2023/04/28 08:57:17;;;;;;;30.13;17.17;;;;;;;;;;4995011;28;25076;-79
2023/04/28 08:59:43;;;;;;;31.63;19.70;;;;;;;;;;4995676;28;25080;-80
2023/04/28 09:02:09;;;;;;;31.92;17.88;;;;;;;;;;5007708;28;25053;-78
2023/04/28 09:04:35;;;;;;;30.70;18.63;;;;;;;;;;4997044;28;25094;-79
2023/04/28 09:07:01;;;;;;;32.35;19.08;;;;;;;;;;4995409;28;25090;-79
2023/04/28 09:09:31;;;;;;;30.27;19.52;;;;;;;;;;4999502;28;25077;-79
2023/04/28 09:11:58;;;;;;;35.25;20.70;;;;;;;;;;4999235;28;25082;-78
2023/04/28 09:14:25;;;;;;;34.50;19.58;;;;;;;;;;4989892;28;25051;-77
2023/04/28 09:16:51;;;;;;;33.17;19.98;;;;;;;;;;4984184;28;25077;-79
2023/04/28 09:19:18;;;;;;;38.30;21.70;;;;;;;;;;4998069;28;25089;-76
2023/04/28 09:21:54;;;;;;;36.35;20.30;;;;;;;;;;4993595;28;25100;-80
2023/04/28 09:24:39;;;;;;;36.97;20.35;;;;;;;;;;4996642;28;25059;-78
2023/04/28 09:27:06;;;;;;;36.38;19.40;;;;;;;;;;4993873;28;25067;-78
2023/04/28 09:29:33;;;;;;;33.70;19.48;;;;;;;;;;4991387;28;25069;-81
2023/04/28 09:32:16;;;;;;;38.15;19.92;;;;;;;;;;4993604;28;25049;-80
2023/04/28 09:34:44;;;;;;;29.58;16.05;;;;;;;;;;4971041;28;25071;-78
2023/04/28 09:37:17;;;;;;;26.33;14.60;;;;;;;;;;4974193;28;25088;-81
2023/04/28 09:39:44;;;;;;;25.17;13.48;;;;;;;;;;4967304;28;25084;-80
2023/04/28 09:42:10;;;;;;;23.75;12.85;;;;;;;;;;4971620;28;25148;-79
2023/04/28 09:44:36;;;;;;;23.95;13.32;;;;;;;;;;4972066;28;25092;-81
2023/04/28 09:47:21;;;;;;;22.75;12.43;;;;;;;;;;4970670;28;25088;-78
2023/04/28 09:49:56;;;;;;;20.85;12.90;;;;;;;;;;4982846;28;25083;-78
2023/04/28 09:52:25;;;;;;;25.23;11.88;;;;;;;;;;4967473;28;25107;-77
2023/04/28 09:54:52;;;;;;;20.40;10.65;;;;;;;;;;4967585;28;25059;-77
2023/04/28 09:57:18;;;;;;;19.92;10.80;;;;;;;;;;4968518;28;25054;-77
2023/04/28 09:59:47;;;;;;;22.33;9.32;;;;;;;;;;4967765;28;25062;-77
2023/04/28 10:02:14;;;;;;;20.02;9.57;;;;;;;;;;4977253;28;25083;-79
2023/04/28 10:04:41;;;;;;;20.17;9.40;;;;;;;;;;4969318;28;25070;-78
2023/04/28 10:07:09;;;;;;;19.33;9.48;;;;;;;;;;4972974;28;25061;-79
2023/04/28 10:09:35;;;;;;;17.48;8.93;;;;;;;;;;4970833;28;25078;-76
2023/04/28 10:12:02;;;;;;;15.85;7.85;;;;;;;;;;4974265;28;25062;-77
2023/04/28 10:14:29;;;;;;;14.57;8.20;;;;;;;;;;4984059;28;25069;-77
2023/04/28 10:16:56;;;;;;;16.73;8.18;;;;;;;;;;4982540;28;25069;-78
2023/04/28 10:19:22;;;;;;;18.15;9.20;;;;;;;;;;4989652;28;25062;-79
2023/04/28 10:21:55;;;;;;;14.32;7.82;;;;;;;;;;4978095;28;25074;-78
2023/04/28 10:24:26;;;;;;;15.52;7.55;;;;;;;;;;4979028;28;25068;-78
2023/04/28 10:26:52;;;;;;;12.02;7.65;;;;;;;;;;4977963;28;25157;-78
2023/04/28 10:29:23;;;;;;;13.80;6.60;;;;;;;;;;4982505;28;25086;-77
2023/04/28 10:32:14;;;;;;;13.85;7.68;;;;;;;;;;4981971;28;25062;-76
2023/04/28 10:34:40;;;;;;;11.45;6.90;;;;;;;;;;4980869;28;25092;-78
2023/04/28 10:37:06;;;;;;;13.07;6.78;;;;;;;;;;4978921;28;25078;-77
2023/04/28 10:39:32;;;;;;;12.43;6.47;;;;;;;;;;4975196;28;25124;-77
2023/04/28 10:41:58;;;;;;;12.05;6.93;;;;;;;;;;4986524;28;25121;-79
2023/04/28 10:44:31;;;;;;;11.80;6.35;;;;;;;;;;5004065;28;25150;-78
2023/04/28 10:47:00;;;;;;;12.43;6.15;;;;;;;;;;4990441;28;25045;-78
2023/04/28 10:49:45;;;;;;;12.13;6.43;;;;;;;;;;5008185;28;25050;-78
2023/04/28 10:52:30;;;;;;;11.80;6.07;;;;;;;;;;4978116;28;25067;-79
2023/04/28 10:55:15;;;;;;;9.70;6.13;;;;;;;;;;4990691;28;25057;-77
2023/04/28 10:57:41;;;;;;;10.80;6.47;;;;;;;;;;4997986;28;25061;-78
2023/04/28 11:00:27;;;;;;;10.25;5.45;;;;;;;;;;4984366;28;25096;-81
2023/04/28 11:02:53;;;;;;;14.27;6.38;;;;;;;;;;5001104;28;25070;-77
2023/04/28 11:05:19;;;;;;;12.95;7.07;;;;;;;;;;5023470;28;25071;-79
2023/04/28 11:08:04;;;;;;;9.73;6.30;;;;;;;;;;4988057;28;25065;-80
2023/04/28 11:10:49;;;;;;;10.02;6.13;;;;;;;;;;4986198;28;25075;-79
2023/04/28 11:13:32;;;;;;;11.73;5.95;;;;;;;;;;4971575;28;25081;-79
2023/04/28 11:16:05;;;;;;;12.15;5.63;;;;;;;;;;4980930;28;25039;-77
2023/04/28 11:18:49;;;;;;;10.27;5.45;;;;;;;;;;4980603;28;25078;-76
2023/04/28 11:21:16;;;;;;;6.85;3.85;;;;;;;;;;4976623;28;25103;-80
2023/04/28 11:23:42;;;;;;;4.00;2.65;;;;;;;;;;4987186;28;25090;-79
2023/04/28 11:26:08;;;;;;;4.50;1.92;;;;;;;;;;4981941;28;25076;-78
2023/04/28 11:28:36;;;;;;;3.15;2.47;;;;;;;;;;4983942;28;25063;-79
2023/04/28 11:31:12;;;;;;;2.63;2.03;;;;;;;;;;4988009;28;25048;-79
2023/04/28 11:33:38;;;;;;;3.42;2.38;;;;;;;;;;4981955;28;25130;-79
2023/04/28 11:36:05;;;;;;;3.50;2.10;;;;;;;;;;4987712;28;25082;-76
2023/04/28 11:38:42;;;;;;;2.50;2.20;;;;;;;;;;4985288;28;25046;-78
2023/04/28 11:41:08;;;;;;;4.10;2.30;;;;;;;;;;4980831;28;25077;-79
2023/04/28 11:43:34;;;;;;;2.53;2.15;;;;;;;;;;4977567;28;25145;-78
2023/04/28 11:46:00;;;;;;;5.65;2.38;;;;;;;;;;4991011;28;25160;-78
2023/04/28 11:48:26;;;;;;;5.93;3.08;;;;;;;;;;4981764;28;25142;-78
2023/04/28 11:50:52;;;;;;;4.45;2.63;;;;;;;;;;4983715;28;25110;-77
2023/04/28 11:53:19;;;;;;;5.13;2.85;;;;;;;;;;4970850;28;25077;-78
2023/04/28 11:55:45;;;;;;;2.88;2.58;;;;;;;;;;4983237;28;25073;-78
2023/04/28 11:58:17;;;;;;;3.40;2.28;;;;;;;;;;4991970;28;25062;-79
2023/04/28 12:00:44;;;;;;;3.28;2.38;;;;;;;;;;4983899;28;25055;-77
2023/04/28 12:03:10;;;;;;;2.60;2.40;;;;;;;;;;4971792;28;25078;-80
2023/04/28 12:05:43;;;;;;;3.97;2.95;;;;;;;;;;4975327;28;25085;-78
2023/04/28 12:08:09;;;;;;;2.92;2.40;;;;;;;;;;4970434;28;25085;-78
2023/04/28 12:10:35;;;;;;;4.88;2.85;;;;;;;;;;4963485;28;25050;-78
2023/04/28 12:13:15;;;;;;;3.22;2.70;;;;;;;;;;4978117;28;25055;-77
2023/04/28 12:15:41;;;;;;;3.55;2.17;;;;;;;;;;4976949;28;25050;-77
2023/04/28 12:18:11;;;;;;;2.83;2.53;;;;;;;;;;4977634;28;25136;-77
2023/04/28 12:20:38;;;;;;;3.78;2.90;;;;;;;;;;4968761;28;25085;-78
2023/04/28 12:23:04;;;;;;;2.72;2.53;;;;;;;;;;4965633;28;25181;-77
2023/04/28 12:25:32;;;;;;;3.88;2.85;;;;;;;;;;4975892;28;25133;-79
2023/04/28 12:27:59;;;;;;;5.22;3.20;;;;;;;;;;4966637;28;25063;-77
2023/04/28 12:30:26;;;;;;;3.55;3.22;;;;;;;;;;4974352;28;25108;-76
2023/04/28 12:32:52;;;;;;;6.57;4.20;;;;;;;;;;4971095;28;25105;-76
2023/04/28 12:35:21;;;;;;;6.65;4.82;;;;;;;;;;4970012;28;25179;-75
2023/04/28 12:37:46;;;;;;;4.45;3.90;;;;;;;;;;4964986;28;25070;-77
2023/04/28 12:40:13;;;;;;;4.93;4.13;;;;;;;;;;4972786;28;25059;-76
2023/04/28 12:42:39;;;;;;;7.75;4.80;;;;;;;;;;4985684;28;25077;-76
2023/04/28 12:45:06;;;;;;;7.70;5.38;;;;;;;;;;4992057;28;25056;-80
2023/04/28 12:47:33;;;;;;;8.00;5.82;;;;;;;;;;4996949;28;25065;-77
2023/04/28 12:49:59;;;;;;;8.95;5.22;;;;;;;;;;4974302;28;25076;-76
2023/04/28 12:52:25;;;;;;;12.63;5.25;;;;;;;;;;4973821;28;25081;-78
2023/04/28 12:54:51;;;;;;;9.15;5.93;;;;;;;;;;4975705;28;25111;-77
2023/04/28 12:57:18;;;;;;;9.68;6.32;;;;;;;;;;4983102;28;25146;-78
2023/04/28 12:59:47;;;;;;;7.88;5.90;;;;;;;;;;4968409;28;25060;-78
2023/04/28 13:02:14;;;;;;;9.07;5.50;;;;;;;;;;4978160;28;25052;-76
2023/04/28 13:04:41;;;;;;;11.48;5.95;;;;;;;;;;4983610;28;25060;-76
2023/04/28 13:07:08;;;;;;;10.68;5.70;;;;;;;;;;4968227;28;25087;-77
2023/04/28 13:09:34;;;;;;;14.10;6.72;;;;;;;;;;4962029;28;25055;-76
2023/04/28 13:12:02;;;;;;;11.20;5.63;;;;;;;;;;4989292;28;25051;-77
2023/04/28 13:14:28;;;;;;;8.60;5.22;;;;;;;;;;4966748;28;25072;-76
2023/04/28 13:16:54;;;;;;;8.32;5.38;;;;;;;;;;4963600;28;25046;-77
2023/04/28 13:19:21;;;;;;;10.43;5.10;;;;;;;;;;4963971;28;25064;-76
2023/04/28 13:21:47;;;;;;;6.95;4.47;;;;;;;;;;4972260;28;25069;-76
2023/04/28 13:24:13;;;;;;;7.13;4.45;;;;;;;;;;4967085;28;25078;-77
2023/04/28 13:26:39;;;;;;;11.07;5.35;;;;;;;;;;4984842;28;24914;-77
2023/04/28 13:29:07;;;;;;;9.32;5.40;;;;;;;;;;4961523;28;25138;-78
2023/04/28 13:31:33;;;;;;;11.50;5.82;;;;;;;;;;4962783;28;25086;-75
2023/04/28 13:34:00;;;;;;;11.63;6.65;;;;;;;;;;4957780;28;25165;-76
2023/04/28 13:36:28;;;;;;;18.52;7.28;;;;;;;;;;4969377;28;25130;-77
2023/04/28 13:38:54;;;;;;;15.10;7.40;;;;;;;;;;4969600;28;25070;-76
2023/04/28 13:41:21;;;;;;;11.77;7.38;;;;;;;;;;4970196;28;25085;-77
2023/04/28 13:43:47;;;;;;;16.55;8.98;;;;;;;;;;4968094;28;25158;-76
2023/04/28 13:46:13;;;;;;;15.07;8.05;;;;;;;;;;4968863;28;25080;-77
2023/04/28 13:48:39;;;;;;;19.98;8.80;;;;;;;;;;4971554;28;25091;-77
2023/04/28 13:51:06;;;;;;;19.33;8.55;;;;;;;;;;4962902;28;25079;-77
2023/04/28 13:53:32;;;;;;;18.45;8.48;;;;;;;;;;4963270;28;25050;-75
2023/04/28 13:55:58;;;;;;;18.77;8.13;;;;;;;;;;4961922;28;25046;-77
2023/04/28 13:58:25;;;;;;;23.92;9.00;;;;;;;;;;4961834;28;25092;-76
2023/04/28 14:00:51;;;;;;;14.70;8.50;;;;;;;;;;4964936;28;25044;-76
2023/04/28 14:03:20;;;;;;;16.23;8.25;;;;;;;;;;4974910;28;25137;-76
2023/04/28 14:05:46;;;;;;;23.45;9.25;;;;;;;;;;4971640;28;25120;-76
2023/04/28 14:08:12;;;;;;;20.42;9.18;;;;;;;;;;4960711;28;25099;-77
2023/04/28 14:10:38;;;;;;;20.15;9.68;;;;;;;;;;4966170;28;25067;-75
2023/04/28 14:13:04;;;;;;;22.40;9.50;;;;;;;;;;4960019;28;25066;-76
2023/04/28 14:15:31;;;;;;;23.40;10.57;;;;;;;;;;4964536;28;25069;-76
2023/04/28 14:17:57;;;;;;;22.13;9.90;;;;;;;;;;4962108;28;25056;-75
2023/04/28 14:20:23;;;;;;;18.70;10.07;;;;;;;;;;4965862;28;25120;-77
2023/04/28 14:22:49;;;;;;;23.52;10.55;;;;;;;;;;4966516;28;25154;-77
2023/04/28 14:25:17;;;;;;;22.33;10.25;;;;;;;;;;4963315;28;25091;-76